Time;durP1;ratioP1;P1;durP2;ratioP2;P2;SDS_P1;SDS_P2;PMS_P1;PMS_P2;Temp;Humidity;BMP_temperature;BMP_pressure;BME280_temperature;BME280_humidity;BME280_pressure;Samples;Min_cycle;Max_cycle;Signal;HPM_P1;HPM_P2
2022/10/23 00:01:19;;;;;;;8.57;4.90;;;;;;;10.02;100.00;100156.25;5064449;28;20686;-69
2022/10/23 00:03:45;;;;;;;8.33;5.00;;;;;;;9.99;100.00;100153.84;5063366;28;20178;-70
2022/10/23 00:06:12;;;;;;;13.23;5.17;;;;;;;10.07;100.00;100157.75;5052694;28;20173;-68
2022/10/23 00:08:38;;;;;;;8.60;5.77;;;;;;;10.05;100.00;100144.16;5052582;28;20224;-69
2022/10/23 00:11:08;;;;;;;8.53;4.87;;;;;;;10.01;100.00;100141.75;5054382;28;20216;-69
2022/10/23 00:13:34;;;;;;;9.57;5.30;;;;;;;9.93;100.00;100138.72;5060057;28;20189;-68
2022/10/23 00:15:59;;;;;;;5.97;4.90;;;;;;;9.92;100.00;100131.09;5054213;28;20177;-69
2022/10/23 00:18:24;;;;;;;8.67;5.13;;;;;;;9.95;100.00;100136.91;5053306;28;20555;-71
2022/10/23 00:20:49;;;;;;;15.33;5.57;;;;;;;9.93;100.00;100132.78;5056421;28;20222;-71
2022/10/23 00:23:15;;;;;;;9.30;5.17;;;;;;;9.93;100.00;100137.91;5063466;28;20284;-70
2022/10/23 00:25:41;;;;;;;11.67;5.33;;;;;;;9.88;100.00;100132.19;5052527;28;20632;-69
2022/10/23 00:28:06;;;;;;;8.67;5.73;;;;;;;9.81;100.00;100129.94;5078536;28;20185;-69
2022/10/23 00:30:31;;;;;;;8.77;5.00;;;;;;;9.86;100.00;100129.69;5044678;28;20238;-69
2022/10/23 00:32:56;;;;;;;14.57;6.83;;;;;;;9.85;100.00;100131.41;5050946;28;20217;-69
2022/10/23 00:35:22;;;;;;;10.53;5.60;;;;;;;9.85;100.00;100128.84;5053754;28;20169;-68
2022/10/23 00:37:47;;;;;;;10.87;5.70;;;;;;;9.83;100.00;100138.38;5053321;28;20600;-68
2022/10/23 00:40:12;;;;;;;10.57;5.30;;;;;;;9.74;100.00;100133.72;5046509;28;20177;-69
2022/10/23 00:42:38;;;;;;;10.27;5.33;;;;;;;9.77;100.00;100127.59;5067450;28;20710;-68
2022/10/23 00:45:22;;;;;;;9.03;4.93;;;;;;;9.66;100.00;100131.53;5053731;28;20181;-69
2022/10/23 00:47:48;;;;;;;14.70;5.23;;;;;;;9.72;100.00;100116.72;5070977;28;20188;-69
2022/10/23 00:50:14;;;;;;;10.87;5.77;;;;;;;9.73;100.00;100108.09;5044891;28;20560;-69
2022/10/23 00:52:47;;;;;;;6.87;5.70;;;;;;;9.65;100.00;100113.59;5078098;28;20277;-70
2022/10/23 00:55:13;;;;;;;9.70;5.07;;;;;;;9.65;100.00;100099.03;5052312;28;20283;-68
2022/10/23 00:57:44;;;;;;;11.67;6.00;;;;;;;9.64;100.00;100099.13;5051652;28;20197;-69
2022/10/23 01:00:25;;;;;;;23.27;5.97;;;;;;;9.53;100.00;100097.91;5043576;28;20186;-70
2022/10/23 01:02:52;;;;;;;16.40;6.47;;;;;;;9.48;100.00;100088.81;5066239;28;20193;-70
2022/10/23 01:05:22;;;;;;;8.63;5.30;;;;;;;9.52;100.00;100087.72;5065349;28;20178;-69
2022/10/23 01:07:55;;;;;;;7.93;5.20;;;;;;;9.56;100.00;100088.41;5043459;28;20533;-69
2022/10/23 01:10:33;;;;;;;8.77;5.10;;;;;;;9.58;100.00;100089.16;5060817;28;20660;-69
2022/10/23 01:13:01;;;;;;;9.60;5.53;;;;;;;9.68;100.00;100091.16;5059918;28;20201;-69
2022/10/23 01:15:48;;;;;;;10.60;5.97;;;;;;;9.63;100.00;100087.19;5053130;28;20177;-68
2022/10/23 01:18:55;;;;;;;7.80;5.57;;;;;;;9.51;100.00;100081.78;5051109;28;20236;-69
2022/10/23 01:21:48;;;;;;;11.53;6.50;;;;;;;9.60;100.00;100083.03;5061235;28;20245;-69
2022/10/23 01:24:29;;;;;;;10.10;5.77;;;;;;;9.66;100.00;100084.47;5037263;28;20181;-68
2022/10/23 01:27:08;;;;;;;9.10;5.93;;;;;;;9.69;100.00;100082.56;5051215;28;20293;-68
2022/10/23 01:29:40;;;;;;;13.70;5.77;;;;;;;9.75;100.00;100076.28;5051236;28;20173;-68
2022/10/23 01:32:11;;;;;;;11.63;6.40;;;;;;;9.75;100.00;100085.72;5060250;28;20570;-68
2022/10/23 01:34:45;;;;;;;15.10;6.57;;;;;;;9.63;100.00;100088.00;5051431;28;20273;-69
2022/10/23 01:37:14;;;;;;;11.07;7.27;;;;;;;9.65;100.00;100091.34;5072347;28;20609;-69
2022/10/23 01:39:45;;;;;;;11.50;7.70;;;;;;;9.52;100.00;100092.88;5049495;28;20185;-70
2022/10/23 01:42:15;;;;;;;16.13;8.90;;;;;;;9.64;100.00;100097.38;5040350;28;20235;-70
2022/10/23 01:44:45;;;;;;;18.53;8.80;;;;;;;9.61;100.00;100079.56;5048893;28;20181;-70
2022/10/23 01:47:13;;;;;;;12.97;8.70;;;;;;;9.63;100.00;100080.31;5074745;28;20485;-68
2022/10/23 01:49:40;;;;;;;15.97;10.47;;;;;;;9.75;100.00;100078.00;5042518;28;20215;-69
2022/10/23 01:52:08;;;;;;;17.20;10.20;;;;;;;9.73;100.00;100077.28;5051855;28;20652;-69
2022/10/23 01:54:38;;;;;;;13.23;9.00;;;;;;;9.72;100.00;100067.91;5045484;28;20181;-68
2022/10/23 01:57:07;;;;;;;19.50;10.73;;;;;;;9.67;100.00;100063.84;5052452;28;20583;-69
2022/10/23 01:59:40;;;;;;;13.83;11.20;;;;;;;9.52;100.00;100052.59;5051245;28;20209;-68
2022/10/23 02:02:09;;;;;;;12.33;9.33;;;;;;;9.61;100.00;100048.75;5059922;28;20247;-69
2022/10/23 02:04:58;;;;;;;14.03;10.27;;;;;;;9.50;100.00;100049.28;5071099;28;20174;-69
2022/10/23 02:07:23;;;;;;;16.93;10.50;;;;;;;9.64;100.00;100050.34;5039842;28;20706;-68
2022/10/23 02:09:49;;;;;;;16.03;11.87;;;;;;;9.69;100.00;100053.50;5052413;28;20174;-69
2022/10/23 02:12:28;;;;;;;19.80;11.77;;;;;;;9.64;100.00;100053.72;5067736;28;20229;-68
2022/10/23 02:15:01;;;;;;;16.90;11.77;;;;;;;9.67;100.00;100056.16;5049948;28;20181;-69
2022/10/23 02:17:41;;;;;;;16.47;12.20;;;;;;;9.64;100.00;100051.16;5050682;28;20536;-69
2022/10/23 02:20:25;;;;;;;19.50;12.90;;;;;;;9.52;100.00;100055.16;5042025;28;20586;-69
2022/10/23 02:22:58;;;;;;;18.90;12.27;;;;;;;9.64;100.00;100042.63;5064272;28;20173;-69
2022/10/23 02:25:31;;;;;;;22.30;14.47;;;;;;;9.57;100.00;100021.56;5050694;28;20178;-68
2022/10/23 02:28:02;;;;;;;28.97;15.83;;;;;;;9.53;100.00;100023.44;5050517;28;20192;-69
2022/10/23 02:30:29;;;;;;;27.63;13.80;;;;;;;9.52;100.00;100026.09;5047104;28;20306;-68
2022/10/23 02:32:56;;;;;;;21.37;15.00;;;;;;;9.53;100.00;100031.16;5049315;28;20229;-70
2022/10/23 02:35:23;;;;;;;26.30;17.40;;;;;;;9.45;100.00;100029.88;5050516;28;20177;-68
2022/10/23 02:37:57;;;;;;;24.97;18.63;;;;;;;9.42;100.00;100032.63;5050257;28;20189;-69
2022/10/23 02:40:28;;;;;;;33.97;19.67;;;;;;;9.49;100.00;100037.38;5046824;28;20877;-69
2022/10/23 02:43:00;;;;;;;22.17;18.43;;;;;;;9.57;100.00;100044.66;5063483;28;20219;-69
2022/10/23 02:45:38;;;;;;;31.07;18.90;;;;;;;9.61;100.00;100038.47;5049242;28;20190;-69
2022/10/23 02:48:22;;;;;;;24.87;19.50;;;;;;;9.63;100.00;100028.94;5050184;28;20177;-69
2022/10/23 02:51:04;;;;;;;28.63;19.57;;;;;;;9.62;100.00;100031.59;5049156;28;20323;-69
2022/10/23 02:54:10;;;;;;;27.93;19.50;;;;;;;9.67;100.00;100040.75;5058148;28;20188;-69
2022/10/23 02:56:52;;;;;;;30.67;19.10;;;;;;;9.71;100.00;100046.50;5028313;28;20521;-69
2022/10/23 02:59:36;;;;;;;33.23;18.67;;;;;;;9.69;100.00;100035.50;5040092;28;20276;-69
2022/10/23 03:02:10;;;;;;;23.13;17.40;;;;;;;9.77;100.00;100029.97;5032709;28;20258;-68
2022/10/23 03:04:38;;;;;;;23.33;18.10;;;;;;;9.81;100.00;100027.16;5049961;28;20185;-69
2022/10/23 03:07:03;;;;;;;25.97;18.27;;;;;;;9.79;100.00;100025.59;5035361;28;20251;-69
2022/10/23 03:09:29;;;;;;;25.97;17.73;;;;;;;9.65;100.00;100029.69;5051165;28;20213;-69
2022/10/23 03:11:55;;;;;;;28.33;18.37;;;;;;;9.68;100.00;100023.56;5054755;28;20224;-69
2022/10/23 03:14:20;;;;;;;25.13;17.23;;;;;;;9.69;100.00;100030.38;5050217;28;20260;-70
2022/10/23 03:16:45;;;;;;;23.77;16.63;;;;;;;9.76;100.00;100018.03;5070682;28;20263;-69
2022/10/23 03:19:11;;;;;;;28.63;17.33;;;;;;;9.71;100.00;100012.31;5047375;28;20183;-69
2022/10/23 03:21:36;;;;;;;29.07;17.50;;;;;;;9.77;100.00;100010.22;5070393;28;20231;-68
2022/10/23 03:24:02;;;;;;;33.23;17.43;;;;;;;9.59;100.00;100013.75;5047867;28;20190;-69
2022/10/23 03:26:27;;;;;;;22.63;16.13;;;;;;;9.61;100.00;100001.69;5054838;28;20181;-69
2022/10/23 03:28:52;;;;;;;24.40;17.10;;;;;;;9.52;100.00;99992.72;5053752;28;20185;-69
2022/10/23 03:31:17;;;;;;;21.90;16.27;;;;;;;9.36;100.00;99998.66;5033365;28;20229;-69
2022/10/23 03:33:43;;;;;;;24.97;17.63;;;;;;;9.40;100.00;100001.06;5059193;28;20600;-69
2022/10/23 03:36:08;;;;;;;20.03;15.47;;;;;;;9.43;100.00;99993.22;5054707;28;20182;-69
2022/10/23 03:38:34;;;;;;;27.33;16.07;;;;;;;9.50;100.00;99995.38;5054265;28;20228;-69
2022/10/23 03:40:59;;;;;;;27.07;16.73;;;;;;;9.47;100.00;99992.13;5058874;28;20289;-69
2022/10/23 03:43:24;;;;;;;25.57;17.40;;;;;;;9.46;100.00;99991.28;5056202;28;20182;-69
2022/10/23 03:45:50;;;;;;;23.27;16.77;;;;;;;9.52;100.00;99997.84;5043126;28;20193;-71
2022/10/23 03:48:16;;;;;;;22.33;15.37;;;;;;;9.55;100.00;100000.28;5053093;28;20185;-71
2022/10/23 03:50:41;;;;;;;22.80;15.63;;;;;;;9.58;100.00;100001.84;5055043;28;20238;-69
2022/10/23 03:53:06;;;;;;;23.33;15.90;;;;;;;9.65;100.00;100001.44;5061927;28;20185;-69
2022/10/23 03:55:32;;;;;;;20.87;15.67;;;;;;;9.65;100.00;99995.47;5054810;28;20185;-68
2022/10/23 03:57:57;;;;;;;21.03;15.53;;;;;;;9.71;100.00;99989.19;5054026;28;20266;-69
2022/10/23 04:00:22;;;;;;;26.67;15.27;;;;;;;9.56;100.00;99996.78;5049832;28;20273;-69
2022/10/23 04:02:47;;;;;;;21.73;14.90;;;;;;;9.43;100.00;100009.44;5068241;28;20182;-69
2022/10/23 04:05:13;;;;;;;18.47;13.73;;;;;;;9.60;100.00;100010.28;5053016;28;20215;-69
2022/10/23 04:07:38;;;;;;;22.97;13.63;;;;;;;9.47;100.00;99997.28;5053834;28;20180;-70
2022/10/23 04:10:05;;;;;;;21.30;14.50;;;;;;;9.46;100.00;100001.56;5044514;28;20186;-70
2022/10/23 04:12:30;;;;;;;18.17;14.67;;;;;;;9.48;100.00;100011.78;5069269;28;20193;-70
2022/10/23 04:14:55;;;;;;;21.97;14.10;;;;;;;9.44;100.00;100013.66;5054507;28;20204;-70
2022/10/23 04:17:21;;;;;;;18.43;14.40;;;;;;;9.46;100.00;100011.00;5052498;28;20703;-70
2022/10/23 04:19:46;;;;;;;18.93;13.93;;;;;;;9.48;100.00;100010.03;5054090;28;20185;-70
2022/10/23 04:22:11;;;;;;;16.80;12.20;;;;;;;9.49;100.00;100003.97;5071267;28;20303;-70
2022/10/23 04:24:36;;;;;;;18.00;12.53;;;;;;;9.52;100.00;99985.84;5044140;28;20180;-69
2022/10/23 04:27:02;;;;;;;17.37;13.37;;;;;;;9.30;100.00;99987.84;5053451;28;20360;-69
2022/10/23 04:29:30;;;;;;;20.67;12.73;;;;;;;9.34;100.00;99984.22;5052453;28;20231;-69
2022/10/23 04:31:55;;;;;;;20.50;11.80;;;;;;;9.47;100.00;99976.72;5050381;28;20397;-70
2022/10/23 04:34:21;;;;;;;18.57;12.00;;;;;;;9.41;100.00;99979.63;5051909;28;20680;-69
2022/10/23 04:36:46;;;;;;;16.60;11.70;;;;;;;9.51;100.00;99988.50;5053328;28;20192;-68
2022/10/23 04:39:11;;;;;;;16.47;11.30;;;;;;;9.42;100.00;99991.53;5052035;28;20339;-68
2022/10/23 04:41:37;;;;;;;14.83;11.37;;;;;;;9.47;100.00;99999.84;5066843;28;20239;-68
2022/10/23 04:44:03;;;;;;;16.47;11.03;;;;;;;9.37;100.00;100002.88;5059619;28;20247;-71
2022/10/23 04:46:28;;;;;;;15.40;11.37;;;;;;;9.32;100.00;99996.31;5052916;28;20265;-68
2022/10/23 04:48:53;;;;;;;11.87;10.70;;;;;;;9.48;100.00;99993.81;5053507;28;20621;-68
2022/10/23 04:51:19;;;;;;;15.23;11.33;;;;;;;9.31;100.00;100002.34;5055293;28;20228;-67
2022/10/23 04:53:44;;;;;;;13.70;10.50;;;;;;;9.43;100.00;99995.78;5064878;28;20218;-68
2022/10/23 04:56:14;;;;;;;15.60;10.93;;;;;;;9.31;100.00;99997.22;5053278;28;20547;-74
2022/10/23 04:58:40;;;;;;;18.77;9.87;;;;;;;9.18;100.00;99994.47;5051608;28;20208;-68
2022/10/23 05:01:06;;;;;;;19.10;11.00;;;;;;;9.27;100.00;99988.03;5053788;28;20231;-68
2022/10/23 05:03:32;;;;;;;13.87;10.43;;;;;;;9.11;100.00;100001.63;5058840;28;20239;-68
2022/10/23 05:05:57;;;;;;;11.67;9.23;;;;;;;9.22;100.00;99998.53;5053032;28;20260;-68
2022/10/23 05:08:22;;;;;;;14.57;9.43;;;;;;;9.33;100.00;100003.13;5052226;28;20189;-68
2022/10/23 05:10:48;;;;;;;11.40;10.20;;;;;;;9.33;100.00;99995.41;5055538;28;20748;-68
2022/10/23 05:13:18;;;;;;;13.73;9.63;;;;;;;9.36;100.00;99995.25;5060423;28;20213;-68
2022/10/23 05:15:43;;;;;;;16.50;10.03;;;;;;;9.28;100.00;99987.94;5038858;28;20585;-68
2022/10/23 05:18:15;;;;;;;14.53;8.90;;;;;;;9.31;100.00;99986.94;5050880;28;20185;-68
2022/10/23 05:20:43;;;;;;;13.93;8.20;;;;;;;9.29;100.00;99988.75;5052728;28;20274;-69
2022/10/23 05:23:10;;;;;;;12.43;9.63;;;;;;;9.28;100.00;99982.81;5062747;28;20221;-68
2022/10/23 05:25:35;;;;;;;20.20;10.00;;;;;;;9.24;100.00;99978.75;5051478;28;20243;-70
2022/10/23 05:28:00;;;;;;;12.47;8.60;;;;;;;9.20;100.00;99975.50;5052586;28;20181;-68
2022/10/23 05:30:26;;;;;;;14.57;8.87;;;;;;;9.16;100.00;99973.16;5048982;28;20631;-68
2022/10/23 05:32:51;;;;;;;15.20;8.80;;;;;;;9.23;100.00;99968.53;5064100;28;20621;-68
2022/10/23 05:35:20;;;;;;;12.90;9.03;;;;;;;9.02;100.00;99963.59;5052533;28;20579;-68
2022/10/23 05:37:49;;;;;;;11.80;8.63;;;;;;;9.03;100.00;99958.38;5049797;28;20322;-70
2022/10/23 05:40:15;;;;;;;14.93;9.33;;;;;;;9.13;100.00;99955.34;5044328;28;20186;-68
2022/10/23 05:42:41;;;;;;;11.03;8.93;;;;;;;9.13;100.00;99957.91;5065933;28;20237;-69
2022/10/23 05:45:07;;;;;;;13.33;9.20;;;;;;;8.92;100.00;99952.97;5052701;28;20205;-68
2022/10/23 05:47:32;;;;;;;13.10;8.97;;;;;;;8.90;100.00;99952.22;5052127;28;20275;-69
2022/10/23 05:49:57;;;;;;;18.93;8.90;;;;;;;9.00;100.00;99950.00;5052053;28;20619;-68
2022/10/23 05:52:23;;;;;;;16.60;8.50;;;;;;;9.11;100.00;99952.88;5063672;28;20225;-68
2022/10/23 05:54:50;;;;;;;12.30;8.17;;;;;;;9.11;100.00;99947.72;5049218;28;20661;-69
2022/10/23 05:57:15;;;;;;;11.10;8.30;;;;;;;9.03;100.00;99947.31;5075059;28;20590;-68
2022/10/23 05:59:41;;;;;;;14.20;8.27;;;;;;;9.13;100.00;99963.88;5045963;28;20223;-70
2022/10/23 06:02:06;;;;;;;15.70;9.50;;;;;;;9.13;100.00;99955.34;5066936;28;20286;-70
2022/10/23 06:04:33;;;;;;;11.10;8.17;;;;;;;9.10;100.00;99950.38;5064027;28;20606;-69
2022/10/23 06:06:59;;;;;;;16.20;8.30;;;;;;;9.16;100.00;99950.88;5045902;28;20174;-69
2022/10/23 06:09:24;;;;;;;16.43;8.30;;;;;;;9.07;100.00;99946.25;5041111;28;20596;-69
2022/10/23 06:11:49;;;;;;;11.10;7.83;;;;;;;9.16;100.00;99939.81;5062808;28;20226;-67
2022/10/23 06:14:14;;;;;;;13.87;8.37;;;;;;;9.12;100.00;99943.44;5048358;28;20194;-69
2022/10/23 06:16:40;;;;;;;9.97;6.97;;;;;;;9.14;100.00;99946.75;5051290;28;20186;-70
2022/10/23 06:19:05;;;;;;;12.37;7.70;;;;;;;9.16;100.00;99944.94;5051657;28;20269;-60
2022/10/23 06:21:30;;;;;;;16.27;7.40;;;;;;;9.25;100.00;99941.88;5054148;28;20224;-59
2022/10/23 06:23:56;;;;;;;13.30;8.90;;;;;;;9.48;100.00;99937.31;5055450;28;20189;-60
2022/10/23 06:26:21;;;;;;;14.00;9.23;;;;;;;9.44;100.00;99933.22;5051001;28;20505;-60
2022/10/23 06:28:46;;;;;;;16.90;9.73;;;;;;;9.26;100.00;99940.16;5051589;28;20328;-70
2022/10/23 06:31:14;;;;;;;16.13;8.33;;;;;;;9.39;100.00;99938.63;5059068;28;20242;-70
2022/10/23 06:33:40;;;;;;;10.03;7.10;;;;;;;9.20;100.00;99942.16;5055683;28;20179;-70
2022/10/23 06:36:09;;;;;;;11.47;7.93;;;;;;;9.41;100.00;99944.50;5079143;28;20555;-70
2022/10/23 06:38:36;;;;;;;11.53;6.90;;;;;;;9.34;100.00;99940.56;5050873;28;20193;-70
2022/10/23 06:41:02;;;;;;;10.47;7.40;;;;;;;9.53;100.00;99938.72;5051611;28;20259;-70
2022/10/23 06:43:28;;;;;;;9.00;6.70;;;;;;;9.60;100.00;99928.97;5057748;28;20675;-70
2022/10/23 06:45:53;;;;;;;12.60;6.60;;;;;;;9.65;100.00;99933.81;5051451;28;20263;-70
2022/10/23 06:48:18;;;;;;;11.77;7.07;;;;;;;9.76;100.00;99931.53;5049541;28;20263;-70
2022/10/23 06:50:44;;;;;;;10.03;6.40;;;;;;;9.76;100.00;99933.25;5052379;28;20584;-70
2022/10/23 06:53:11;;;;;;;13.03;6.23;;;;;;;9.67;100.00;99932.03;5071849;28;20667;-71
2022/10/23 06:55:38;;;;;;;12.20;5.93;;;;;;;9.68;100.00;99936.25;5046811;28;20204;-70
2022/10/23 06:58:09;;;;;;;12.97;6.53;;;;;;;9.73;100.00;99936.81;5049118;28;20203;-70
2022/10/23 07:00:35;;;;;;;11.33;6.20;;;;;;;9.90;100.00;99945.34;5036819;28;20251;-70
2022/10/23 07:03:00;;;;;;;7.57;6.40;;;;;;;10.01;100.00;99937.91;5063745;28;20209;-69
2022/10/23 07:05:25;;;;;;;11.77;6.93;;;;;;;10.18;100.00;99948.09;5047252;28;20644;-70
2022/10/23 07:07:51;;;;;;;10.97;6.03;;;;;;;10.40;100.00;99943.53;5050946;28;20177;-70
2022/10/23 07:10:16;;;;;;;8.10;6.20;;;;;;;10.65;100.00;99946.38;5044372;28;20640;-70
2022/10/23 07:12:42;;;;;;;11.10;5.93;;;;;;;10.79;100.00;99944.72;5064420;28;20165;-70
2022/10/23 07:15:08;;;;;;;15.00;6.67;;;;;;;10.81;100.00;99935.19;5038908;28;20209;-70
2022/10/23 07:17:33;;;;;;;13.27;5.93;;;;;;;11.05;100.00;99930.34;5064523;28;20300;-70
2022/10/23 07:19:59;;;;;;;11.07;6.27;;;;;;;11.17;100.00;99921.06;5049719;28;20174;-70
2022/10/23 07:22:24;;;;;;;6.90;5.40;;;;;;;11.42;100.00;99924.72;5069777;28;20217;-69
2022/10/23 07:24:49;;;;;;;6.70;5.97;;;;;;;11.47;100.00;99917.53;5051082;28;20187;-69
2022/10/23 07:27:14;;;;;;;8.90;5.20;;;;;;;11.55;100.00;99917.09;5050929;28;20254;-70
2022/10/23 07:29:40;;;;;;;9.63;5.03;;;;;;;11.71;100.00;99914.34;5051200;28;20177;-70
2022/10/23 07:32:06;;;;;;;10.80;5.43;;;;;;;11.65;100.00;99901.84;5024803;28;20728;-69
2022/10/23 07:34:31;;;;;;;10.67;6.23;;;;;;;11.77;100.00;99896.78;5048148;28;20166;-70
2022/10/23 07:36:57;;;;;;;7.73;5.03;;;;;;;11.93;100.00;99904.38;5082380;28;20531;-69
2022/10/23 07:39:22;;;;;;;11.20;4.93;;;;;;;12.06;100.00;99903.63;5050625;28;20174;-70
2022/10/23 07:41:48;;;;;;;10.80;5.47;;;;;;;12.20;100.00;99907.91;5069158;28;20224;-70
2022/10/23 07:44:14;;;;;;;7.00;5.60;;;;;;;12.27;100.00;99916.91;5054273;28;20272;-69
2022/10/23 07:46:39;;;;;;;10.77;5.47;;;;;;;12.50;100.00;99919.72;5049931;28;20632;-70
2022/10/23 07:49:04;;;;;;;8.30;4.90;;;;;;;12.64;100.00;99913.66;5050778;28;20684;-70
2022/10/23 07:51:29;;;;;;;8.70;4.87;;;;;;;12.89;100.00;99910.28;5063193;28;20349;-70
2022/10/23 07:53:55;;;;;;;9.13;5.27;;;;;;;12.76;100.00;99905.09;5059612;28;20651;-70
2022/10/23 07:56:23;;;;;;;11.17;5.37;;;;;;;12.82;100.00;99912.41;5049815;28;20182;-69
2022/10/23 07:58:52;;;;;;;9.13;5.37;;;;;;;13.00;100.00;99917.28;5037794;28;20585;-70
2022/10/23 08:01:21;;;;;;;5.93;4.20;;;;;;;13.04;100.00;99918.72;5079332;28;20573;-70
2022/10/23 08:03:47;;;;;;;7.07;5.03;;;;;;;13.44;100.00;99921.19;5059814;28;20185;-70
2022/10/23 08:06:12;;;;;;;10.47;4.77;;;;;;;13.69;100.00;99922.91;5054297;28;20693;-70
2022/10/23 08:08:37;;;;;;;7.63;4.30;;;;;;;13.82;100.00;99924.63;5086038;28;20174;-70
2022/10/23 08:11:03;;;;;;;8.43;4.67;;;;;;;13.49;100.00;99913.13;5060705;28;20228;-70
2022/10/23 08:13:28;;;;;;;6.57;4.70;;;;;;;13.41;100.00;99908.50;5056339;28;20174;-70
2022/10/23 08:15:54;;;;;;;9.83;4.60;;;;;;;13.47;100.00;99902.06;5054392;28;20257;-70
2022/10/23 08:18:20;;;;;;;5.67;4.10;;;;;;;13.24;100.00;99900.09;5035924;28;20204;-69
2022/10/23 08:20:47;;;;;;;8.37;4.40;;;;;;;13.60;100.00;99900.28;5051676;28;20239;-69
2022/10/23 08:23:17;;;;;;;13.10;4.20;;;;;;;13.90;100.00;99900.78;5074222;28;20600;-70
2022/10/23 08:25:42;;;;;;;9.30;4.20;;;;;;;13.98;100.00;99882.94;5053916;28;20284;-70
2022/10/23 08:28:08;;;;;;;7.97;5.00;;;;;;;13.74;100.00;99888.94;5048001;28;20257;-70
2022/10/23 08:30:35;;;;;;;6.50;4.57;;;;;;;13.75;100.00;99876.88;5040709;28;20231;-69
2022/10/23 08:33:05;;;;;;;7.93;4.40;;;;;;;13.84;100.00;99882.22;5058913;28;20226;-69
2022/10/23 08:35:35;;;;;;;6.03;4.23;;;;;;;13.81;100.00;99871.25;5046188;28;20189;-70
2022/10/23 08:38:00;;;;;;;6.73;4.37;;;;;;;13.61;100.00;99872.69;5076732;28;20250;-69
2022/10/23 08:40:25;;;;;;;14.97;4.97;;;;;;;13.59;100.00;99875.34;5049757;28;20686;-70
2022/10/23 08:43:09;;;;;;;8.77;4.70;;;;;;;13.77;100.00;99880.16;5065637;28;20185;-70
2022/10/23 08:45:43;;;;;;;8.43;4.87;;;;;;;14.43;100.00;99883.13;5054129;28;20188;-70
2022/10/23 08:48:19;;;;;;;11.20;4.90;;;;;;;14.42;100.00;99880.66;5051683;28;20192;-69
2022/10/23 08:50:49;;;;;;;6.50;3.53;;;;;;;14.29;100.00;99872.94;5048680;28;20235;-69
2022/10/23 08:53:24;;;;;;;7.67;4.10;;;;;;;14.15;100.00;99882.56;5061911;28;20327;-69
2022/10/23 08:56:00;;;;;;;6.20;3.70;;;;;;;13.67;100.00;99893.75;5085955;28;20643;-69
2022/10/23 08:58:41;;;;;;;7.70;4.17;;;;;;;13.93;100.00;99897.97;5073472;28;20280;-70
2022/10/23 09:01:40;;;;;;;11.23;4.17;;;;;;;13.84;100.00;99892.53;5060510;28;20326;-70
2022/10/23 09:04:05;;;;;;;8.60;4.07;;;;;;;13.49;100.00;99875.19;5055267;28;20182;-70
2022/10/23 09:06:58;;;;;;;10.73;4.27;;;;;;;13.21;100.00;99868.53;5068219;28;20185;-69
2022/10/23 09:09:52;;;;;;;15.33;4.63;;;;;;;13.07;100.00;99872.88;5053189;28;20193;-69
2022/10/23 09:12:24;;;;;;;10.27;4.83;;;;;;;13.48;100.00;99881.31;5075522;28;20303;-70
2022/10/23 09:15:15;;;;;;;6.33;4.40;;;;;;;13.81;100.00;99866.91;5046957;28;20490;-70
2022/10/23 09:17:44;;;;;;;6.60;4.33;;;;;;;13.79;100.00;99870.53;5084921;28;20204;-69
2022/10/23 09:20:19;;;;;;;9.10;4.00;;;;;;;13.95;100.00;99870.25;5076586;28;20177;-69
2022/10/23 09:22:46;;;;;;;6.47;3.73;;;;;;;14.24;100.00;99868.13;5066076;28;20587;-69
2022/10/23 09:25:24;;;;;;;9.53;4.03;;;;;;;14.21;100.00;99870.94;5050869;28;20185;-70
2022/10/23 09:27:52;;;;;;;7.73;3.70;;;;;;;14.03;100.00;99863.59;5051290;28;20532;-69
2022/10/23 09:30:26;;;;;;;10.97;4.37;;;;;;;14.27;100.00;99860.13;5027544;28;20520;-69
2022/10/23 09:32:52;;;;;;;10.20;3.73;;;;;;;14.48;100.00;99862.06;5078358;28;20217;-69
2022/10/23 09:35:23;;;;;;;7.37;3.67;;;;;;;14.49;100.00;99864.53;5051567;28;20203;-70
2022/10/23 09:37:52;;;;;;;6.33;3.63;;;;;;;14.62;100.00;99869.59;5050852;28;20725;-69
2022/10/23 09:40:32;;;;;;;5.67;3.57;;;;;;;14.65;100.00;99860.84;5046168;28;20636;-70
2022/10/23 09:43:02;;;;;;;8.20;3.93;;;;;;;14.77;100.00;99861.66;5063599;28;20181;-70
2022/10/23 09:45:31;;;;;;;5.90;3.40;;;;;;;15.92;100.00;99854.44;5052529;28;20189;-70
2022/10/23 09:48:09;;;;;;;4.73;2.80;;;;;;;16.62;100.00;99848.72;5050722;28;20200;-70
2022/10/23 09:50:35;;;;;;;5.17;2.63;;;;;;;17.40;100.00;99827.41;5049377;28;20302;-69
2022/10/23 09:53:00;;;;;;;3.50;2.67;;;;;;;16.56;100.00;99844.91;5075674;28;20311;-69
2022/10/23 09:55:26;;;;;;;8.37;4.00;;;;;;;15.81;100.00;99833.69;5052624;28;20594;-70
2022/10/23 09:57:52;;;;;;;5.00;3.60;;;;;;;15.54;100.00;99834.16;5051629;28;20709;-70
2022/10/23 10:00:21;;;;;;;7.20;3.20;;;;;;;15.12;100.00;99832.22;5032572;28;20280;-70
2022/10/23 10:03:18;;;;;;;4.77;3.50;;;;;;;14.60;100.00;99837.00;5065017;28;20173;-70
2022/10/23 10:05:44;;;;;;;6.63;3.07;;;;;;;14.89;100.00;99828.84;5010109;28;20221;-69
2022/10/23 10:08:21;;;;;;;6.47;2.77;;;;;;;14.80;100.00;99830.38;5023957;28;20186;-69
2022/10/23 10:10:52;;;;;;;8.63;3.70;;;;;;;14.74;100.00;99839.41;5003582;28;20295;-69
2022/10/23 10:13:32;;;;;;;6.23;3.17;;;;;;;14.35;100.00;99831.94;5017948;28;20639;-69
2022/10/23 10:16:00;;;;;;;10.10;2.80;;;;;;;14.36;100.00;99815.47;5029899;28;20220;-69
2022/10/23 10:18:40;;;;;;;6.40;3.20;;;;;;;14.75;100.00;99827.28;5028946;28;20206;-70
2022/10/23 10:21:26;;;;;;;7.67;2.90;;;;;;;14.59;100.00;99828.44;5003113;28;20316;-68
2022/10/23 10:24:06;;;;;;;6.23;2.97;;;;;;;15.00;100.00;99827.06;5012835;28;20217;-68
2022/10/23 10:26:49;;;;;;;3.97;2.93;;;;;;;15.02;100.00;99824.38;5011854;28;20212;-70
2022/10/23 10:29:30;;;;;;;5.87;2.90;;;;;;;14.94;100.00;99824.94;5012842;28;20645;-70
2022/10/23 10:32:04;;;;;;;6.43;2.77;;;;;;;15.01;100.00;99823.53;5002910;28;20237;-70
2022/10/23 10:34:50;;;;;;;4.63;2.67;;;;;;;14.95;100.00;99823.19;5012875;28;20215;-70
2022/10/23 10:37:25;;;;;;;6.07;2.87;;;;;;;14.83;100.00;99818.03;5028917;28;20190;-68
2022/10/23 10:40:33;;;;;;;2.80;2.60;;;;;;;14.68;100.00;99816.59;5012795;28;20239;-70
2022/10/23 10:43:17;;;;;;;5.03;2.90;;;;;;;14.54;100.00;99825.38;5022974;28;20224;-68
2022/10/23 10:46:08;;;;;;;5.90;3.40;;;;;;;14.30;100.00;99803.00;5051322;28;20181;-68
2022/10/23 10:48:45;;;;;;;4.77;3.13;;;;;;;14.27;100.00;99813.56;5049555;28;20185;-69
2022/10/23 10:51:17;;;;;;;9.87;3.27;;;;;;;14.54;100.00;99804.69;5059342;28;20703;-69
2022/10/23 10:54:09;;;;;;;6.90;3.20;;;;;;;14.31;100.00;99794.31;5063742;28;20636;-69
2022/10/23 10:56:39;;;;;;;8.77;3.27;;;;;;;14.47;100.00;99790.53;5049645;28;20189;-69
2022/10/23 10:59:15;;;;;;;7.97;3.30;;;;;;;14.84;100.00;99780.00;5050278;28;20193;-69
2022/10/23 11:01:48;;;;;;;7.13;2.97;;;;;;;15.12;100.00;99777.81;5019406;28;20703;-69
2022/10/23 11:04:30;;;;;;;5.90;3.10;;;;;;;15.24;100.00;99766.47;5029728;28;20197;-68
2022/10/23 11:06:58;;;;;;;7.33;3.53;;;;;;;15.08;100.00;99756.53;5031357;28;20184;-69
2022/10/23 11:09:29;;;;;;;7.33;3.60;;;;;;;14.94;100.00;99764.56;5030273;28;20269;-69
2022/10/23 11:11:54;;;;;;;12.10;3.93;;;;;;;14.91;100.00;99757.00;5069623;28;20257;-69
2022/10/23 11:14:22;;;;;;;6.40;4.10;;;;;;;14.71;100.00;99751.66;5047687;28;20208;-68
2022/10/23 11:17:04;;;;;;;9.93;3.93;;;;;;;14.63;100.00;99765.13;5056879;28;20242;-69
2022/10/23 11:19:44;;;;;;;9.17;3.50;;;;;;;14.79;100.00;99769.97;5083627;28;20197;-68
2022/10/23 11:22:19;;;;;;;6.20;3.70;;;;;;;15.30;100.00;99753.03;5075034;28;20220;-69
2022/10/23 11:24:55;;;;;;;7.53;4.00;;;;;;;15.56;100.00;99759.69;5039678;28;20185;-69
2022/10/23 11:27:58;;;;;;;6.63;3.93;;;;;;;15.71;100.00;99760.22;5043746;28;20613;-68
2022/10/23 11:30:28;;;;;;;9.03;3.63;;;;;;;15.57;100.00;99761.34;5025800;28;20696;-68
2022/10/23 11:33:12;;;;;;;6.97;5.13;;;;;;;15.38;100.00;99759.38;5062713;28;20225;-68